createdAt,value
2018-10-06T00:00:50.956Z,13.78
2018-10-06T00:15:53.088Z,15.32
2018-10-06T00:30:52.243Z,14.15
2018-10-06T00:45:53.875Z,16.60
2018-10-06T01:00:52.336Z,13.55
2018-10-06T01:15:54.261Z,12.82
2018-10-06T01:30:53.142Z,14.03
2018-10-06T01:45:52.510Z,14.18
2018-10-06T02:00:50.511Z,15.23
2018-10-06T02:15:52.334Z,15.98
2018-10-06T02:30:50.487Z,14.33
2018-10-06T02:45:51.192Z,14.65
2018-10-06T03:00:51.787Z,14.25
2018-10-06T03:15:50.651Z,16.70
2018-10-06T03:30:50.418Z,16.02
2018-10-06T03:45:50.858Z,19.20
2018-10-06T04:00:51.047Z,17.30
2018-10-06T04:15:52.951Z,18.77
2018-10-06T04:30:50.846Z,13.75
2018-10-06T04:45:51.348Z,19.23
2018-10-06T05:00:51.266Z,23.18
2018-10-06T05:15:57.283Z,18.32
2018-10-06T05:30:53.334Z,34.55
2018-10-06T05:45:49.417Z,26.87
2018-10-06T06:00:50.536Z,17.70
2018-10-06T06:15:50.536Z,16.70
2018-10-06T06:30:50.427Z,17.32
2018-10-06T06:45:52.771Z,16.73
2018-10-06T07:00:52.771Z,22.30
2018-10-06T07:15:50.732Z,15.75
2018-10-06T07:30:50.591Z,12.95
2018-10-06T07:45:51.061Z,11.97
2018-10-06T08:00:51.135Z,11.10
2018-10-06T08:15:51.075Z,9.60
2018-10-06T08:30:51.013Z,9.08
2018-10-06T08:45:51.339Z,8.85
2018-10-06T09:00:53.526Z,9.70
2018-10-06T09:15:53.241Z,8.80
2018-10-06T09:30:51.220Z,8.18
2018-10-06T09:45:50.560Z,8.98
2018-10-06T10:00:57.282Z,8.65
2018-10-06T10:15:50.877Z,9.23
2018-10-06T10:30:50.003Z,9.53
2018-10-06T10:45:50.925Z,7.47
2018-10-06T11:00:52.342Z,8.38
2018-10-06T11:15:50.814Z,10.40
2018-10-06T11:30:50.783Z,8.70
2018-10-06T11:45:51.110Z,9.25
2018-10-06T12:00:51.296Z,7.50
2018-10-06T12:15:50.315Z,7.12
2018-10-06T12:30:51.005Z,9.45
2018-10-06T12:45:50.449Z,8.20
2018-10-06T13:00:50.257Z,7.78
2018-10-06T13:15:50.128Z,7.95
2018-10-06T13:30:50.074Z,8.70
2018-10-06T13:45:50.492Z,7.53
2018-10-06T14:15:50.480Z,7.03
2018-10-06T14:30:50.595Z,7.90
2018-10-06T14:45:50.773Z,7.67
2018-10-06T15:00:50.943Z,9.65
2018-10-06T15:15:50.762Z,8.55
2018-10-06T15:30:50.200Z,8.70
2018-10-06T15:45:49.993Z,10.00
2018-10-06T16:00:53.062Z,10.20
2018-10-06T16:15:49.910Z,9.70
2018-10-06T16:30:52.889Z,9.90
2018-10-06T16:45:50.467Z,10.40
2018-10-06T17:00:50.346Z,11.10
2018-10-06T17:15:50.222Z,11.88
2018-10-06T17:30:50.173Z,11.70
2018-10-06T17:45:50.673Z,6.15
2018-10-06T18:00:50.787Z,7.55
2018-10-06T18:15:50.561Z,6.50
2018-10-06T18:30:50.462Z,9.73
2018-10-06T18:45:52.951Z,8.35
2018-10-06T19:00:51.118Z,9.80
2018-10-06T19:15:52.855Z,9.18
2018-10-06T19:30:52.821Z,15.55
2018-10-06T19:45:52.224Z,12.18
2018-10-06T20:00:50.323Z,12.82
2018-10-06T20:15:50.117Z,13.00
2018-10-06T20:30:50.088Z,12.98
2018-10-06T20:45:50.430Z,13.48
2018-10-06T21:00:50.641Z,13.35
2018-10-06T21:15:50.486Z,14.33
2018-10-06T21:30:50.541Z,13.88
2018-10-06T21:45:51.393Z,16.25
2018-10-06T22:00:56.106Z,16.35
2018-10-06T22:15:50.254Z,13.03
2018-10-06T22:30:50.800Z,13.88
2018-10-06T22:45:51.182Z,16.45
2018-10-06T23:00:51.166Z,13.32
2018-10-06T23:15:52.903Z,13.25
2018-10-06T23:30:52.471Z,14.83
2018-10-06T23:45:50.484Z,13.38
